Trenton, KY (42286)

1:03 PM CST on February 21, 2017 (GMT -0600)
Cindy Jo Ct | | Change Station

Elev 522 ft 36.63 °N, 87.30 °W | Updated 35 seconds ago

Mostly Cloudy
Mostly Cloudy
75.5 °F
Feels Like 78 °F
N
4.0
Wind Variable Wind from SE

Today
High -- | Low -- °F
--% Chance of Precip.
Yesterday
High -- | Low -- °F
Precip. -- in
Pressure 29.90 in
Visibility 10.0 miles
Clouds Scattered Clouds 7000 ft
Heat Index 78 °F
Dew Point 54 °F
Humidity 48%
Rainfall 0.00 in
Snow Depth Not available.
6:29 AM 5:35 PM
Waning Crescent, 23% visible
METAR KHOP 211758Z AUTO 14013G19KT 10SM SCT070 19/12 A2990 RMK AO2 SLP124 60000 T01890117 10189 20145 57023
Pressure 29.90 in
Visibility 10.0 miles
Clouds Scattered Clouds 7000 ft
Heat Index 78 °F
Dew Point 54 °F
Humidity 48%
Rainfall 0.00 in
Snow Depth Not available.
6:29 AM 5:35 PM
Waning Crescent, 23% visible
METAR KHOP 211758Z AUTO 14013G19KT 10SM SCT070 19/12 A2990 RMK AO2 SLP124 60000 T01890117 10189 20145 57023

Get Your Daily Forecast Email!

Thanks for signing up!

Be on the lookout for a verification email in your inbox.

You'll start receiving the daily forecast at 8 AM.

×

10-Day Weather Forecast

Almanac

Astronomy

Feb. 21, 2017 Rise Set
Actual Time
Civil Twilight
Nautical Twilight
Astronomical Twilight
Moon
Length of Visible Light
Length of Day
Tomorrow will be .
, % of the Moon is Illuminated

Today's Extremes

State Highs State Lows

Community

WunderPhotos

Upload Photos

1,962,540 photos uploaded!

WunderBlog® & News

Nearby

Air Quality

  Air Quality AQ Index Pollutant
Not available.

Snow Depth

Station Depth Elevation

Earthquake Activity

City Distance Mag. Time & Date
Minimum magnitude displayed is 2.5.

Coastal Water Temperatures

Place Temperature

Stations

Nearby Weather Stations

Station Location Temp. Windchill Dew Point Humidity Wind Precip. Elev Updated Type
                   

Watches & Warnings

There are currently no watches in effect.